createdAt,value
2019-06-26T00:00:16.340Z,29.44
2019-06-26T00:02:45.646Z,29.66
2019-06-26T00:05:15.055Z,29.54
2019-06-26T00:07:44.346Z,29.40
2019-06-26T00:10:14.359Z,29.20
2019-06-26T00:12:43.741Z,29.28
2019-06-26T00:15:13.496Z,29.10
2019-06-26T00:17:42.872Z,29.17
2019-06-26T00:20:12.983Z,29.17
2019-06-26T00:22:42.290Z,29.32
2019-06-26T00:25:11.628Z,29.06
2019-06-26T00:27:40.910Z,28.84
2019-06-26T00:30:10.429Z,28.91
2019-06-26T00:32:39.724Z,28.82
2019-06-26T00:35:09.173Z,28.99
2019-06-26T00:37:38.463Z,28.90
2019-06-26T00:40:08.298Z,29.19
2019-06-26T00:42:37.582Z,28.99
2019-06-26T00:45:07.542Z,28.94
2019-06-26T00:47:36.820Z,29.05
2019-06-26T00:50:07.357Z,28.78
2019-06-26T00:52:36.687Z,28.62
2019-06-26T00:55:06.745Z,28.56
2019-06-26T00:57:36.044Z,28.82
2019-06-26T01:00:09.262Z,28.50
2019-06-26T01:02:38.821Z,28.65
2019-06-26T01:05:10.368Z,28.64
2019-06-26T01:07:39.792Z,28.56
2019-06-26T01:10:10.129Z,28.70
2019-06-26T01:12:39.526Z,28.69
2019-06-26T01:15:09.989Z,28.69
2019-06-26T01:17:39.468Z,28.40
2019-06-26T01:20:09.226Z,28.40
2019-06-26T01:22:38.559Z,28.45
2019-06-26T01:25:08.235Z,28.26
2019-06-26T01:27:37.544Z,28.33
2019-06-26T01:30:07.548Z,28.49
2019-06-26T01:32:36.861Z,28.30
2019-06-26T01:35:06.343Z,28.13
2019-06-26T01:37:35.664Z,28.27
2019-06-26T01:40:05.305Z,28.34
2019-06-26T01:42:34.624Z,28.21
2019-06-26T01:45:03.910Z,28.47
2019-06-26T01:47:33.226Z,28.08
2019-06-26T01:50:02.500Z,28.03
2019-06-26T01:52:31.809Z,27.97
2019-06-26T01:55:01.099Z,27.81
2019-06-26T01:57:30.425Z,27.73
2019-06-26T01:59:59.713Z,27.92
2019-06-26T02:02:29.074Z,27.91
2019-06-26T02:04:58.391Z,27.95
2019-06-26T02:07:27.707Z,27.92
2019-06-26T02:09:57.134Z,27.86
2019-06-26T02:12:26.474Z,27.65
2019-06-26T02:14:55.795Z,27.97
2019-06-26T02:17:25.159Z,27.90
2019-06-26T02:19:54.444Z,27.82
2019-06-26T02:22:23.780Z,27.80
2019-06-26T02:24:53.078Z,27.71
2019-06-26T02:27:22.472Z,27.74
2019-06-26T02:29:51.804Z,27.79
2019-06-26T02:32:21.129Z,27.59
2019-06-26T02:34:50.764Z,27.79
2019-06-26T02:37:20.180Z,27.70
2019-06-26T02:39:49.511Z,27.64
2019-06-26T02:42:18.919Z,27.67
2019-06-26T02:44:53.790Z,27.61
2019-06-26T02:47:20.954Z,27.45
2019-06-26T02:49:50.445Z,27.61
2019-06-26T02:52:19.813Z,27.45
2019-06-26T02:54:49.103Z,27.46
2019-06-26T02:57:18.442Z,27.50
2019-06-26T02:59:47.746Z,27.32
2019-06-26T03:02:17.045Z,27.29
2019-06-26T03:04:46.368Z,26.87
2019-06-26T03:07:15.686Z,27.05
2019-06-26T03:09:45.062Z,27.26
2019-06-26T03:12:14.378Z,27.31
2019-06-26T03:14:43.786Z,27.17
2019-06-26T03:17:13.173Z,27.08
2019-06-26T03:19:42.584Z,27.04
2019-06-26T03:22:11.937Z,27.16
2019-06-26T03:24:41.210Z,27.16
2019-06-26T03:27:10.500Z,26.89
2019-06-26T03:29:39.860Z,27.07
2019-06-26T03:32:09.160Z,27.02
2019-06-26T03:34:38.493Z,26.94
2019-06-26T03:37:07.818Z,26.90
2019-06-26T03:39:37.143Z,26.82
2019-06-26T03:42:06.467Z,27.05
2019-06-26T03:44:35.813Z,27.05
2019-06-26T03:47:05.121Z,26.70
2019-06-26T03:49:34.441Z,26.99
2019-06-26T03:52:03.788Z,26.93
2019-06-26T03:54:33.228Z,27.07
2019-06-26T03:57:02.511Z,27.14
2019-06-26T03:59:31.816Z,27.14
2019-06-26T04:02:01.182Z,26.95
2019-06-26T04:04:30.488Z,27.07
2019-06-26T04:06:59.831Z,27.06
2019-06-26T04:09:29.129Z,26.92
2019-06-26T04:11:58.454Z,26.96
2019-06-26T04:14:27.770Z,27.07
2019-06-26T04:16:57.144Z,27.07
2019-06-26T04:19:26.450Z,26.77
2019-06-26T04:21:55.757Z,26.89
2019-06-26T04:24:25.062Z,26.89
2019-06-26T04:26:54.433Z,26.76
2019-06-26T04:29:23.809Z,26.78
2019-06-26T04:31:53.168Z,26.58
2019-06-26T04:34:22.652Z,27.08
2019-06-26T04:36:52.080Z,27.63
2019-06-26T04:39:21.662Z,28.14
2019-06-26T04:41:51.104Z,28.14
2019-06-26T04:44:20.421Z,29.42
2019-06-26T04:46:50.831Z,29.34
2019-06-26T04:49:20.192Z,29.77
2019-06-26T04:51:49.519Z,30.38
2019-06-26T04:54:18.885Z,30.15
2019-06-26T04:56:48.259Z,29.63
2019-06-26T04:59:19.715Z,29.78
2019-06-26T05:01:49.004Z,30.05
2019-06-26T05:04:18.356Z,30.11
2019-06-26T05:06:47.672Z,31.22
2019-06-26T05:09:17.126Z,30.25
2019-06-26T05:11:46.564Z,30.04
2019-06-26T05:14:15.877Z,29.33
2019-06-26T05:16:45.193Z,27.91
2019-06-26T05:19:14.741Z,27.48
2019-06-26T05:21:44.151Z,27.88
2019-06-26T05:24:13.397Z,28.26
2019-06-26T05:26:42.727Z,28.93
2019-06-26T05:29:12.098Z,30.57
2019-06-26T05:31:41.410Z,30.66
2019-06-26T05:34:11.277Z,29.56
2019-06-26T05:36:40.631Z,29.39
2019-06-26T05:39:10.113Z,28.21
2019-06-26T05:41:39.420Z,28.33
2019-06-26T05:44:08.738Z,28.39
2019-06-26T05:46:38.056Z,28.15
2019-06-26T05:49:07.389Z,28.94
2019-06-26T05:51:36.867Z,28.89
2019-06-26T05:54:06.269Z,28.60
2019-06-26T05:56:35.572Z,27.62
2019-06-26T05:59:04.910Z,27.99
2019-06-26T06:01:34.351Z,27.98
2019-06-26T06:04:03.678Z,27.46
2019-06-26T06:06:41.803Z,27.30
2019-06-26T06:09:05.667Z,27.61
2019-06-26T06:11:34.982Z,28.26
2019-06-26T06:14:04.361Z,28.21
2019-06-26T06:16:46.894Z,28.52
2019-06-26T06:19:04.721Z,27.98
2019-06-26T06:21:34.023Z,27.61
2019-06-26T06:24:03.373Z,28.19
2019-06-26T06:26:32.667Z,27.69
2019-06-26T06:29:02.148Z,28.24
2019-06-26T06:31:31.504Z,27.92
2019-06-26T06:34:00.828Z,28.63
2019-06-26T06:36:30.159Z,28.50
2019-06-26T06:38:59.460Z,27.75
2019-06-26T06:41:28.745Z,27.60
2019-06-26T06:43:58.062Z,27.91
2019-06-26T06:46:27.342Z,29.06
2019-06-26T06:48:56.647Z,28.92
2019-06-26T06:51:25.973Z,28.94
2019-06-26T06:53:55.375Z,28.70
2019-06-26T06:56:24.689Z,28.57
2019-06-26T06:58:53.985Z,29.42
2019-06-26T07:01:23.283Z,28.90
2019-06-26T07:03:52.603Z,28.53
2019-06-26T07:06:21.939Z,28.60
2019-06-26T07:08:51.242Z,29.24
2019-06-26T07:11:20.603Z,28.97
2019-06-26T07:13:49.883Z,28.76
2019-06-26T07:16:19.237Z,28.99
2019-06-26T07:18:48.514Z,28.57
2019-06-26T07:21:17.862Z,29.29
2019-06-26T07:23:47.160Z,28.79
2019-06-26T07:26:16.647Z,28.75
2019-06-26T07:28:45.940Z,29.11
2019-06-26T07:31:15.274Z,28.96
2019-06-26T07:33:44.624Z,29.42
2019-06-26T07:36:13.960Z,30.04
2019-06-26T07:38:43.230Z,28.74
2019-06-26T07:41:12.654Z,29.32
2019-06-26T07:43:41.955Z,28.72
2019-06-26T07:46:11.315Z,28.88
2019-06-26T07:48:40.603Z,29.61
2019-06-26T08:25:56.909Z,29.65
2019-06-26T08:28:26.216Z,28.89
2019-06-26T08:30:55.463Z,29.46
2019-06-26T08:33:24.751Z,29.61
2019-06-26T08:35:54.176Z,29.04
2019-06-26T08:38:23.456Z,29.42
2019-06-26T08:40:52.697Z,29.49
2019-06-26T08:43:21.949Z,28.76
2019-06-26T08:45:51.207Z,28.53
2019-06-26T08:48:38.331Z,29.57
2019-06-26T08:50:51.501Z,30.21
2019-06-26T08:53:20.761Z,30.13
2019-06-26T08:55:49.992Z,28.23
2019-06-26T08:58:19.268Z,28.64
2019-06-26T09:00:48.514Z,28.06
2019-06-26T09:03:17.887Z,29.23
2019-06-26T09:05:48.623Z,29.61
2019-06-26T09:08:18.192Z,29.83
2019-06-26T09:10:47.518Z,29.44
2019-06-26T09:13:16.811Z,27.96
2019-06-26T09:15:49.557Z,29.14
2019-06-26T09:18:34.057Z,29.39
2019-06-26T09:20:48.042Z,29.99
2019-06-26T09:23:17.303Z,30.32
2019-06-26T09:25:46.708Z,30.02
2019-06-26T09:28:15.980Z,29.47
2019-06-26T09:30:45.272Z,29.44
2019-06-26T09:33:14.563Z,28.19
2019-06-26T09:35:43.861Z,28.67
2019-06-26T09:38:13.731Z,29.09
2019-06-26T09:40:43.009Z,28.68
2019-06-26T09:43:12.326Z,29.46
2019-06-26T09:45:41.611Z,28.76
2019-06-26T09:48:11.393Z,28.91
2019-06-26T09:50:40.738Z,28.98
2019-06-26T09:53:10.037Z,28.57
2019-06-26T09:55:39.435Z,28.57
2019-06-26T09:58:08.899Z,28.48
2019-06-26T10:00:38.559Z,29.17
2019-06-26T10:03:07.873Z,29.99
2019-06-26T10:05:37.375Z,30.40
2019-06-26T10:08:06.608Z,29.66
2019-06-26T10:10:35.979Z,29.76
2019-06-26T10:13:05.268Z,28.79
2019-06-26T10:15:34.601Z,28.61
2019-06-26T10:18:03.990Z,29.48
2019-06-26T10:20:34.139Z,30.47
2019-06-26T10:23:03.403Z,29.65
2019-06-26T10:25:32.667Z,30.36
2019-06-26T10:28:02.575Z,29.78
2019-06-26T10:30:31.842Z,30.05
2019-06-26T10:33:01.131Z,29.17
2019-06-26T10:35:30.697Z,30.18
2019-06-26T10:38:00.070Z,30.25
2019-06-26T10:40:29.385Z,28.72
2019-06-26T10:42:59.303Z,30.06
2019-06-26T10:45:28.537Z,30.65
2019-06-26T10:47:57.810Z,29.82
2019-06-26T10:50:27.134Z,29.86
2019-06-26T10:52:56.433Z,30.76
2019-06-26T10:55:25.784Z,29.40
2019-06-26T10:57:55.111Z,29.42
2019-06-26T11:00:26.142Z,30.39
2019-06-26T11:02:55.466Z,30.05
2019-06-26T11:05:24.925Z,30.67
2019-06-26T11:07:54.343Z,29.95
2019-06-26T11:10:23.578Z,30.40
2019-06-26T11:12:52.849Z,30.55
2019-06-26T11:15:25.355Z,30.33
2019-06-26T11:17:54.812Z,30.91
2019-06-26T11:20:24.211Z,30.17
2019-06-26T11:22:53.619Z,30.25
2019-06-26T11:25:22.940Z,30.11
2019-06-26T11:27:52.226Z,29.81
2019-06-26T11:30:22.105Z,30.51
2019-06-26T11:32:51.377Z,30.09
2019-06-26T11:35:20.666Z,30.92
2019-06-26T11:37:50.169Z,30.75
2019-06-26T11:40:19.757Z,30.40
2019-06-26T11:42:49.030Z,30.12
2019-06-26T11:45:18.638Z,30.02
2019-06-26T11:47:47.910Z,30.45
2019-06-26T11:50:18.332Z,30.32
2019-06-26T11:52:47.573Z,30.27
2019-06-26T11:55:17.549Z,30.33
2019-06-26T11:57:46.954Z,30.89
2019-06-26T12:00:17.082Z,30.74
2019-06-26T12:02:49.421Z,30.89
2019-06-26T12:05:19.084Z,31.13
2019-06-26T12:07:48.333Z,30.79
2019-06-26T12:10:18.207Z,30.31
2019-06-26T12:12:47.514Z,30.66
2019-06-26T12:15:17.477Z,30.56
2019-06-26T12:17:46.769Z,31.51
2019-06-26T12:20:19.162Z,31.19
2019-06-26T12:22:47.422Z,31.34
2019-06-26T12:25:17.645Z,31.35
2019-06-26T12:27:46.940Z,31.44
2019-06-26T12:30:16.339Z,31.40
2019-06-26T12:33:01.588Z,31.69
2019-06-26T12:35:16.812Z,30.98
2019-06-26T12:37:46.581Z,30.79
2019-06-26T12:40:16.240Z,31.15
2019-06-26T12:42:45.502Z,31.41
2019-06-26T12:45:14.997Z,31.96
2019-06-26T12:47:44.261Z,31.54
2019-06-26T12:50:14.259Z,31.93
2019-06-26T12:52:43.536Z,32.18
2019-06-26T12:55:12.798Z,32.45
2019-06-26T12:57:42.040Z,31.76
2019-06-26T13:00:11.863Z,31.93
2019-06-26T13:02:41.251Z,32.39
2019-06-26T13:05:10.650Z,32.45
2019-06-26T13:07:39.900Z,32.32
2019-06-26T13:10:11.083Z,32.24
2019-06-26T13:12:40.327Z,31.45
2019-06-26T13:15:10.295Z,32.11
2019-06-26T13:17:39.545Z,32.14
2019-06-26T13:20:10.348Z,32.08
2019-06-26T13:22:39.909Z,32.60
2019-06-26T13:25:09.260Z,32.53
2019-06-26T13:27:38.528Z,31.92
2019-06-26T13:30:08.515Z,31.98
2019-06-26T13:32:37.741Z,32.24
2019-06-26T13:35:08.030Z,31.93
2019-06-26T13:37:40.417Z,32.45
2019-06-26T13:40:09.863Z,33.01
2019-06-26T13:42:39.141Z,32.83
2019-06-26T13:45:08.676Z,32.70
2019-06-26T13:47:37.951Z,32.55
2019-06-26T13:50:07.689Z,32.46
2019-06-26T13:52:37.060Z,32.39
2019-06-26T13:55:06.390Z,32.09
2019-06-26T13:57:38.560Z,32.57
2019-06-26T14:00:08.217Z,32.62
2019-06-26T14:02:37.585Z,32.91
2019-06-26T14:05:07.305Z,32.60
2019-06-26T14:07:36.612Z,32.58
2019-06-26T14:10:06.636Z,32.79
2019-06-26T14:12:36.231Z,32.47
2019-06-26T14:15:05.670Z,33.17
2019-06-26T14:17:34.939Z,32.70
2019-06-26T14:20:04.591Z,32.75
2019-06-26T14:22:33.873Z,32.57
2019-06-26T14:25:03.139Z,32.78
2019-06-26T14:27:33.156Z,32.56
2019-06-26T14:30:02.385Z,32.74
2019-06-26T14:32:31.682Z,32.34
2019-06-26T14:35:00.942Z,32.66
2019-06-26T14:37:30.217Z,32.72
2019-06-26T14:39:59.466Z,33.16
2019-06-26T14:42:28.800Z,32.60
2019-06-26T14:44:58.038Z,32.00
2019-06-26T14:47:27.312Z,32.56
2019-06-26T14:49:56.595Z,32.51
2019-06-26T14:52:26.041Z,32.98
2019-06-26T14:54:55.351Z,32.86
2019-06-26T14:57:27.745Z,33.08
2019-06-26T14:59:57.028Z,32.93
2019-06-26T15:02:26.356Z,32.51
2019-06-26T15:04:55.623Z,32.51
2019-06-26T15:07:25.003Z,32.39
2019-06-26T15:09:54.369Z,32.79
2019-06-26T15:12:23.627Z,32.41
2019-06-26T15:14:52.894Z,32.74
2019-06-26T15:17:22.146Z,32.66
2019-06-26T15:19:51.450Z,32.73
2019-06-26T15:22:20.702Z,32.81
2019-06-26T15:24:50.039Z,31.97
2019-06-26T15:27:19.326Z,31.94
2019-06-26T15:29:48.633Z,32.66
2019-06-26T15:32:17.930Z,32.68
2019-06-26T15:34:47.326Z,32.33
2019-06-26T15:37:16.632Z,31.71
2019-06-26T15:39:46.060Z,31.60
2019-06-26T15:42:15.359Z,31.80
2019-06-26T15:44:44.699Z,31.93
2019-06-26T15:47:13.955Z,31.26
2019-06-26T15:49:43.251Z,32.22
2019-06-26T15:52:15.288Z,32.00
2019-06-26T15:54:43.582Z,32.07
2019-06-26T15:57:13.072Z,31.91
2019-06-26T15:59:42.367Z,31.53
2019-06-26T16:02:11.648Z,32.04
2019-06-26T16:04:40.933Z,31.53
2019-06-26T16:07:10.179Z,31.96
2019-06-26T16:09:39.466Z,32.09
2019-06-26T16:12:08.691Z,31.85
2019-06-26T16:14:37.955Z,31.95
2019-06-26T16:17:13.570Z,31.60
2019-06-26T16:19:42.848Z,31.52
2019-06-26T16:22:12.107Z,31.37
2019-06-26T16:24:41.398Z,31.76
2019-06-26T16:27:10.656Z,31.67
2019-06-26T16:29:39.936Z,31.78
2019-06-26T16:32:09.187Z,31.70
2019-06-26T16:34:38.446Z,31.75
2019-06-26T16:37:07.748Z,31.51
2019-06-26T16:39:37.017Z,31.11
2019-06-26T16:42:06.289Z,31.30
2019-06-26T16:44:35.567Z,31.31
2019-06-26T16:47:04.844Z,30.85
2019-06-26T16:49:34.088Z,31.12
2019-06-26T16:52:05.159Z,31.54
2019-06-26T16:54:34.519Z,31.07
2019-06-26T16:57:03.810Z,30.95
2019-06-26T16:59:33.108Z,30.92
2019-06-26T17:02:02.430Z,30.80
2019-06-26T17:04:31.801Z,30.82
2019-06-26T17:07:01.173Z,31.07
2019-06-26T17:09:30.512Z,31.00
2019-06-26T17:11:59.794Z,31.22
2019-06-26T17:14:29.043Z,30.74
2019-06-26T17:16:58.410Z,30.76
2019-06-26T17:19:27.780Z,30.18
2019-06-26T17:21:57.286Z,30.11
2019-06-26T17:24:26.682Z,30.37
2019-06-26T17:26:59.822Z,30.37
2019-06-26T17:29:29.235Z,30.46
2019-06-26T17:31:58.545Z,30.22
2019-06-26T17:34:27.875Z,30.41
2019-06-26T17:36:57.157Z,30.28
2019-06-26T17:39:26.428Z,30.27
2019-06-26T17:41:55.719Z,30.17
2019-06-26T17:44:24.992Z,29.70
2019-06-26T17:46:56.115Z,29.95
2019-06-26T17:49:25.420Z,29.86
2019-06-26T17:51:54.648Z,29.65
2019-06-26T17:54:23.896Z,29.61
2019-06-26T17:56:54.247Z,29.68
2019-06-26T17:59:23.515Z,29.64
2019-06-26T18:01:53.014Z,29.33
2019-06-26T18:04:22.309Z,29.12
2019-06-26T18:06:51.696Z,29.21
2019-06-26T18:09:21.087Z,29.45
2019-06-26T18:11:50.445Z,29.21
2019-06-26T18:14:19.750Z,28.98
2019-06-26T18:16:49.096Z,29.32
2019-06-26T18:19:18.453Z,29.08
2019-06-26T18:21:47.745Z,29.35
2019-06-26T18:24:17.027Z,29.13
2019-06-26T18:26:46.317Z,29.31
2019-06-26T18:29:15.631Z,29.13
2019-06-26T18:31:44.927Z,28.68
2019-06-26T18:34:14.208Z,28.63
2019-06-26T18:36:43.520Z,28.47
2019-06-26T18:39:12.812Z,28.67
2019-06-26T18:41:42.086Z,28.24
2019-06-26T18:44:11.413Z,28.62
2019-06-26T18:46:40.705Z,28.11
2019-06-26T18:49:10.051Z,28.16
2019-06-26T18:51:39.314Z,27.91
2019-06-26T18:54:08.626Z,28.19
2019-06-26T18:56:39.057Z,28.42
2019-06-26T18:59:08.471Z,28.09
2019-06-26T19:01:37.749Z,28.09
2019-06-26T19:04:07.032Z,28.21
2019-06-26T19:06:36.449Z,27.78
2019-06-26T19:09:07.327Z,27.49
2019-06-26T19:11:36.765Z,27.60
2019-06-26T19:14:06.103Z,27.19
2019-06-26T19:16:36.417Z,27.15
2019-06-26T19:19:06.015Z,27.08
2019-06-26T19:21:37.094Z,27.37
2019-06-26T19:24:10.478Z,27.55
2019-06-26T19:26:37.658Z,27.55
2019-06-26T19:29:06.988Z,26.86
2019-06-26T19:31:36.256Z,27.20
2019-06-26T19:34:05.545Z,27.16
2019-06-26T19:36:48.987Z,26.76
2019-06-26T19:39:07.157Z,27.01
2019-06-26T19:41:36.573Z,26.82
2019-06-26T19:44:08.865Z,26.86
2019-06-26T19:46:36.878Z,27.36
2019-06-26T19:49:06.279Z,27.19
2019-06-26T19:51:35.553Z,27.52
2019-06-26T19:54:04.874Z,27.20
2019-06-26T19:56:34.344Z,27.06
2019-06-26T19:59:03.588Z,27.15
2019-06-26T20:01:32.885Z,26.87
2019-06-26T20:04:02.168Z,26.58
2019-06-26T20:06:31.428Z,26.95
2019-06-26T20:09:00.714Z,26.88
2019-06-26T20:11:30.019Z,26.60
2019-06-26T20:13:59.315Z,26.12
2019-06-26T20:16:28.642Z,26.12
2019-06-26T20:18:57.924Z,26.57
2019-06-26T20:21:27.240Z,26.44
2019-06-26T20:23:58.226Z,26.14
2019-06-26T20:26:27.576Z,26.26
2019-06-26T20:28:56.885Z,26.17
2019-06-26T20:31:26.278Z,26.17
2019-06-26T20:33:55.612Z,26.01
2019-06-26T20:36:24.940Z,25.60
2019-06-26T20:38:54.322Z,25.83
2019-06-26T20:41:23.612Z,25.73
2019-06-26T20:43:52.889Z,25.50
2019-06-26T20:46:22.195Z,26.07
2019-06-26T20:48:51.465Z,25.43
2019-06-26T20:51:21.128Z,25.56
2019-06-26T20:53:51.335Z,25.19
2019-06-26T20:56:20.618Z,25.35
2019-06-26T20:58:49.926Z,25.51
2019-06-26T21:01:20.237Z,25.16
2019-06-26T21:07:21.157Z,24.95
2019-06-26T21:09:50.530Z,25.01
2019-06-26T21:12:24.174Z,24.45
2019-06-26T21:14:55.313Z,24.98
2019-06-26T21:17:25.757Z,24.79
2019-06-26T21:19:56.701Z,24.00
2019-06-26T21:22:25.981Z,24.66
2019-06-26T21:24:55.853Z,24.95
2019-06-26T21:28:14.771Z,24.97
2019-06-26T21:30:44.674Z,24.90
2019-06-26T21:33:14.078Z,25.14
2019-06-26T21:36:12.418Z,24.94
2019-06-26T21:38:42.340Z,24.60
2019-06-26T21:41:14.456Z,24.20
2019-06-26T21:43:43.852Z,24.45
2019-06-26T21:46:13.140Z,24.51
2019-06-26T21:52:11.957Z,24.34
2019-06-26T21:54:41.234Z,24.16
2019-06-26T21:57:10.524Z,23.97
2019-06-26T21:59:39.788Z,24.54
2019-06-26T22:03:12.417Z,24.16
2019-06-26T22:05:41.665Z,23.74
2019-06-26T22:12:19.189Z,23.42
2019-06-26T22:15:23.795Z,23.24
2019-06-26T22:17:53.063Z,23.93
2019-06-26T22:20:23.358Z,23.37
2019-06-26T22:22:53.270Z,23.16
2019-06-26T22:25:22.643Z,23.41
2019-06-26T22:27:52.032Z,23.01
2019-06-26T22:30:21.485Z,23.13
2019-06-26T22:32:50.861Z,22.74
2019-06-26T22:35:21.338Z,22.71
2019-06-26T22:37:50.594Z,22.52
2019-06-26T22:40:19.846Z,22.82
2019-06-26T22:42:49.163Z,23.13
2019-06-26T22:45:18.495Z,22.72
2019-06-26T22:47:47.756Z,22.69
2019-06-26T22:50:17.031Z,22.49
2019-06-26T22:52:46.290Z,22.95
2019-06-26T22:55:15.697Z,22.44
2019-06-26T22:57:44.963Z,22.85
2019-06-26T23:00:15.804Z,22.23
2019-06-26T23:02:45.080Z,22.28
2019-06-26T23:05:14.337Z,22.79
2019-06-26T23:07:43.554Z,22.33
2019-06-26T23:10:13.020Z,22.24
2019-06-26T23:12:42.264Z,22.18
2019-06-26T23:15:13.552Z,22.21
2019-06-26T23:17:42.796Z,21.96
2019-06-26T23:20:12.480Z,21.59
2019-06-26T23:22:41.721Z,22.26
2019-06-26T23:25:11.275Z,22.22
2019-06-26T23:27:40.516Z,22.22
2019-06-26T23:30:16.876Z,21.88
2019-06-26T23:32:46.166Z,22.63
2019-06-26T23:35:15.446Z,21.91
2019-06-26T23:37:44.713Z,21.46
2019-06-26T23:40:14.087Z,20.92
2019-06-26T23:42:43.353Z,21.96
2019-06-26T23:45:12.934Z,21.18
2019-06-26T23:47:42.191Z,21.74
2019-06-26T23:50:11.766Z,20.84
2019-06-26T23:52:41.009Z,20.73
2019-06-26T23:55:10.308Z,20.45
2019-06-26T23:57:57.699Z,20.72
